Westchester County Airport White Plains US
ICAO: KHPN
IATA: HPN
Category: Medium
Scheduled Services: Yes

Elevation: 439 ft
TransAlt. 18000 ft.

Airport Communications:
NEW YORK APP:120.8
ATIS:133.8
CLNC DEL:127.25
CTAF:118.575
NEW YORK DEP:120.55
GND:121.825
TWR:118.575
UNICOM:122.95

KHPN Zoom In..

If you have problems with the map follow the link
https://www.worldairports.se/pages/airport.php?
ICAO=KHPN

Runways:

(A) RW 11 length 4451 ft width 150 ft
---- / hdg 114

(B) RW 16 length 6549 ft width 150 ft
ILS 109.70 / hdg 162

(C) RW 29 length 4451 ft width 150 ft
---- / hdg 294

(D) RW 34 length 6549 ft width 150 ft
ILS 109.70 / hdg 342

Location; KHPN
Day. 26 / Time. 23.56 Zulu
* Altimeter: 29.75
* Temperature: 04° c. 39.2°f.
* Wind from: 260° Speed 06 kn.
Dewpoint: -04° c.
Visibility: 10 Statute Miles.
Clouds: Broken 5500 ft.

KHPN 262356Z 26006KT 10SM BKN055 04/M04 A2975 RMK AO2 SLP082 T00441039 10067 20044 53008


Wind From 260°
Speed 06 kn.

 
 
jpsmedia worldairports.se 2020   terms of use